sensor_id;sensor_type;location;lat;lon;timestamp;pressure;altitude;pressure_sealevel;temperature;humidity
13068;BME280;6600;51.362;6.686;2023-07-28T00:00:06;100131.22;;;18.47;100.00
13068;BME280;6600;51.362;6.686;2023-07-28T00:02:31;100124.72;;;18.43;100.00
13068;BME280;6600;51.362;6.686;2023-07-28T00:04:56;100131.28;;;18.37;100.00
13068;BME280;6600;51.362;6.686;2023-07-28T00:07:22;100134.78;;;18.43;100.00
13068;BME280;6600;51.362;6.686;2023-07-28T00:09:47;100132.94;;;18.33;100.00
13068;BME280;6600;51.362;6.686;2023-07-28T00:12:12;100130.72;;;18.40;100.00
13068;BME280;6600;51.362;6.686;2023-07-28T00:14:38;100126.66;;;18.38;100.00
13068;BME280;6600;51.362;6.686;2023-07-28T00:17:03;100130.72;;;18.40;100.00
13068;BME280;6600;51.362;6.686;2023-07-28T00:19:28;100130.16;;;18.43;100.00
13068;BME280;6600;51.362;6.686;2023-07-28T00:21:54;100127.47;;;18.38;100.00
13068;BME280;6600;51.362;6.686;2023-07-28T00:24:21;100128.03;;;18.35;100.00
13068;BME280;6600;51.362;6.686;2023-07-28T00:26:46;100126.41;;;18.34;100.00
13068;BME280;6600;51.362;6.686;2023-07-28T00:29:12;100129.41;;;18.33;100.00
13068;BME280;6600;51.362;6.686;2023-07-28T00:31:37;100122.34;;;18.37;100.00
13068;BME280;6600;51.362;6.686;2023-07-28T00:34:03;100129.66;;;18.36;100.00
13068;BME280;6600;51.362;6.686;2023-07-28T00:36:29;100120.44;;;18.37;100.00
13068;BME280;6600;51.362;6.686;2023-07-28T00:38:55;100115.56;;;18.34;100.00
13068;BME280;6600;51.362;6.686;2023-07-28T00:41:20;100112.81;;;18.39;100.00
13068;BME280;6600;51.362;6.686;2023-07-28T00:43:46;100117.16;;;18.40;100.00
13068;BME280;6600;51.362;6.686;2023-07-28T00:46:11;100118.25;;;18.39;100.00
13068;BME280;6600;51.362;6.686;2023-07-28T00:48:38;100124.19;;;18.41;100.00
13068;BME280;6600;51.362;6.686;2023-07-28T00:51:05;100121.47;;;18.41;100.00
13068;BME280;6600;51.362;6.686;2023-07-28T00:53:31;100121.53;;;18.36;100.00
13068;BME280;6600;51.362;6.686;2023-07-28T00:55:56;100123.41;;;18.36;100.00
13068;BME280;6600;51.362;6.686;2023-07-28T00:58:21;100125.31;;;18.40;100.00
13068;BME280;6600;51.362;6.686;2023-07-28T01:00:47;100123.16;;;18.32;100.00
13068;BME280;6600;51.362;6.686;2023-07-28T01:03:13;100122.09;;;18.33;100.00
13068;BME280;6600;51.362;6.686;2023-07-28T01:05:50;100117.44;;;18.39;100.00
13068;BME280;6600;51.362;6.686;2023-07-28T01:09:40;100120.47;;;18.32;100.00
13068;BME280;6600;51.362;6.686;2023-07-28T01:11:32;100122.53;;;18.45;100.00
13068;BME280;6600;51.362;6.686;2023-07-28T01:13:58;100126.91;;;18.41;100.00
13068;BME280;6600;51.362;6.686;2023-07-28T01:16:23;100123.09;;;18.42;100.00
13068;BME280;6600;51.362;6.686;2023-07-28T01:18:49;100130.69;;;18.45;100.00
13068;BME280;6600;51.362;6.686;2023-07-28T01:21:20;100139.38;;;18.42;100.00
13068;BME280;6600;51.362;6.686;2023-07-28T01:26:36;100129.94;;;18.35;100.00
13068;BME280;6600;51.362;6.686;2023-07-28T01:29:03;100127.44;;;18.43;100.00
13068;BME280;6600;51.362;6.686;2023-07-28T01:31:29;100126.13;;;18.41;100.00
13068;BME280;6600;51.362;6.686;2023-07-28T01:33:54;100122.53;;;18.45;100.00
13068;BME280;6600;51.362;6.686;2023-07-28T01:36:19;100127.47;;;18.38;100.00
13068;BME280;6600;51.362;6.686;2023-07-28T01:38:45;100123.09;;;18.42;100.00
13068;BME280;6600;51.362;6.686;2023-07-28T01:41:10;100124.19;;;18.41;100.00
13068;BME280;6600;51.362;6.686;2023-07-28T01:43:35;100123.09;;;18.42;100.00
13068;BME280;6600;51.362;6.686;2023-07-28T01:46:01;100120.38;;;18.42;100.00
13068;BME280;6600;51.362;6.686;2023-07-28T01:48:26;100119.88;;;18.40;100.00
13068;BME280;6600;51.362;6.686;2023-07-28T01:50:52;100125.25;;;18.50;100.00
13068;BME280;6600;51.362;6.686;2023-07-28T01:53:17;100119.88;;;18.40;100.00
13068;BME280;6600;51.362;6.686;2023-07-28T01:55:42;100127.13;;;18.50;100.00
13068;BME280;6600;51.362;6.686;2023-07-28T01:58:08;100124.47;;;18.40;100.00
13068;BME280;6600;51.362;6.686;2023-07-28T02:00:34;100119.38;;;18.33;100.00
13068;BME280;6600;51.362;6.686;2023-07-28T02:03:00;100117.44;;;18.39;100.00
13068;BME280;6600;51.362;6.686;2023-07-28T02:05:27;100118.25;;;18.39;100.00
13068;BME280;6600;51.362;6.686;2023-07-28T02:07:53;100118.25;;;18.39;100.00
13068;BME280;6600;51.362;6.686;2023-07-28T02:10:19;100115.56;;;18.34;100.00
13068;BME280;6600;51.362;6.686;2023-07-28T02:12:45;100111.16;;;18.43;100.00
13068;BME280;6600;51.362;6.686;2023-07-28T02:15:11;100113.88;;;18.43;100.00
13068;BME280;6600;51.362;6.686;2023-07-28T02:17:37;100119.06;;;18.40;100.00
13068;BME280;6600;51.362;6.686;2023-07-28T02:20:03;100119.81;;;18.45;100.00
13068;BME280;6600;51.362;6.686;2023-07-28T02:22:28;100118.75;;;18.46;100.00
13068;BME280;6600;51.362;6.686;2023-07-28T02:24:54;100123.09;;;18.42;100.00
13068;BME280;6600;51.362;6.686;2023-07-28T02:27:19;100125.81;;;18.42;100.00
13068;BME280;6600;51.362;6.686;2023-07-28T02:29:45;100121.47;;;18.41;100.00
13068;BME280;6600;51.362;6.686;2023-07-28T02:32:11;100126.63;;;18.43;100.00
13068;BME280;6600;51.362;6.686;2023-07-28T02:34:36;100129.66;;;18.36;100.00
13068;BME280;6600;51.362;6.686;2023-07-28T02:37:01;100135.59;;;18.38;100.00
13068;BME280;6600;51.362;6.686;2023-07-28T02:39:27;100135.59;;;18.43;100.00
13068;BME280;6600;51.362;6.686;2023-07-28T02:41:53;100138.28;;;18.43;100.00
13068;BME280;6600;51.362;6.686;2023-07-28T02:44:18;100132.56;;;18.45;100.00
13068;BME280;6600;51.362;6.686;2023-07-28T02:46:43;100130.72;;;18.40;100.00
13068;BME280;6600;51.362;6.686;2023-07-28T02:49:09;100147.25;;;18.44;100.00
13068;BME280;6600;51.362;6.686;2023-07-28T02:51:34;100143.19;;;18.41;100.00
13068;BME280;6600;51.362;6.686;2023-07-28T02:54:00;100149.16;;;18.43;100.00
13068;BME280;6600;51.362;6.686;2023-07-28T02:56:25;100146.44;;;18.43;100.00
13068;BME280;6600;51.362;6.686;2023-07-28T02:58:51;100144.50;;;18.49;100.00
13068;BME280;6600;51.362;6.686;2023-07-28T03:01:16;100147.28;;;18.39;100.00
13068;BME280;6600;51.362;6.686;2023-07-28T03:03:42;100153.25;;;18.41;100.00
13068;BME280;6600;51.362;6.686;2023-07-28T03:06:07;100162.22;;;18.36;100.00
13068;BME280;6600;51.362;6.686;2023-07-28T03:08:33;100157.03;;;18.40;100.00
13068;BME280;6600;51.362;6.686;2023-07-28T03:10:58;100163.53;;;18.44;100.00
13068;BME280;6600;51.362;6.686;2023-07-28T03:13:24;100164.28;;;18.49;100.00
13068;BME280;6600;51.362;6.686;2023-07-28T03:15:49;100156.72;;;18.51;100.00
13068;BME280;6600;51.362;6.686;2023-07-28T03:18:15;100153.50;;;18.44;100.00
13068;BME280;6600;51.362;6.686;2023-07-28T03:20:40;100149.97;;;18.39;100.00
13068;BME280;6600;51.362;6.686;2023-07-28T03:23:06;100157.31;;;18.38;100.00
13068;BME280;6600;51.362;6.686;2023-07-28T03:25:31;100161.09;;;18.42;100.00
13068;BME280;6600;51.362;6.686;2023-07-28T03:27:56;100157.84;;;18.40;100.00
13068;BME280;6600;51.362;6.686;2023-07-28T03:30:21;100159.44;;;18.41;100.00
13068;BME280;6600;51.362;6.686;2023-07-28T03:32:47;100162.66;;;18.48;100.00
13068;BME280;6600;51.362;6.686;2023-07-28T03:35:13;100162.22;;;18.36;100.00
13068;BME280;6600;51.362;6.686;2023-07-28T03:37:38;100159.75;;;18.35;100.00
13068;BME280;6600;51.362;6.686;2023-07-28T03:40:04;100163.84;;;18.37;100.00
13068;BME280;6600;51.362;6.686;2023-07-28T03:42:29;100164.34;;;18.39;100.00
13068;BME280;6600;51.362;6.686;2023-07-28T03:44:55;100162.47;;;18.40;100.00
13068;BME280;6600;51.362;6.686;2023-07-28T03:47:20;100156.53;;;18.33;100.00
13068;BME280;6600;51.362;6.686;2023-07-28T03:49:46;100175.78;;;18.31;100.00
13068;BME280;6600;51.362;6.686;2023-07-28T03:52:11;100176.84;;;18.35;100.00
13068;BME280;6600;51.362;6.686;2023-07-28T03:54:36;100175.22;;;18.39;100.00
13068;BME280;6600;51.362;6.686;2023-07-28T03:57:01;100176.84;;;18.35;100.00
13068;BME280;6600;51.362;6.686;2023-07-28T03:59:27;100180.63;;;18.44;100.00
13068;BME280;6600;51.362;6.686;2023-07-28T04:01:52;100179.03;;;18.33;100.00
13068;BME280;6600;51.362;6.686;2023-07-28T04:04:18;100178.44;;;18.46;100.00
13068;BME280;6600;51.362;6.686;2023-07-28T04:06:45;100177.34;;;18.42;100.00
13068;BME280;6600;51.362;6.686;2023-07-28T04:09:12;100173.56;;;18.43;100.00
13068;BME280;6600;51.362;6.686;2023-07-28T04:11:38;100174.09;;;18.45;100.00
13068;BME280;6600;51.362;6.686;2023-07-28T04:14:04;100171.44;;;18.35;100.00
13068;BME280;6600;51.362;6.686;2023-07-28T04:16:29;100174.13;;;18.40;100.00
13068;BME280;6600;51.362;6.686;2023-07-28T04:18:54;100170.56;;;18.45;100.00
13068;BME280;6600;51.362;6.686;2023-07-28T04:21:20;100174.09;;;18.50;100.00
13068;BME280;6600;51.362;6.686;2023-07-28T04:23:45;100177.31;;;18.52;100.00
13068;BME280;6600;51.362;6.686;2023-07-28T04:26:11;100179.25;;;18.47;100.00
13068;BME280;6600;51.362;6.686;2023-07-28T04:28:36;100179.25;;;18.47;100.00
13068;BME280;6600;51.362;6.686;2023-07-28T04:31:01;100185.47;;;18.52;100.00
13068;BME280;6600;51.362;6.686;2023-07-28T04:33:26;100187.06;;;18.58;100.00
13068;BME280;6600;51.362;6.686;2023-07-28T04:35:52;100185.72;;;18.56;100.00
13068;BME280;6600;51.362;6.686;2023-07-28T04:38:17;100191.44;;;18.54;100.00
13068;BME280;6600;51.362;6.686;2023-07-28T04:40:44;100184.91;;;18.55;100.00
13068;BME280;6600;51.362;6.686;2023-07-28T04:43:09;100192.47;;;18.58;100.00
13068;BME280;6600;51.362;6.686;2023-07-28T04:45:34;100194.66;;;18.61;100.00
13068;BME280;6600;51.362;6.686;2023-07-28T04:48:00;100193.03;;;18.60;100.00
13068;BME280;6600;51.362;6.686;2023-07-28T04:50:25;100190.25;;;18.65;100.00
13068;BME280;6600;51.362;6.686;2023-07-28T04:52:50;100190.25;;;18.71;100.00
13068;BME280;6600;51.362;6.686;2023-07-28T04:55:16;100190.25;;;18.71;100.00
13068;BME280;6600;51.362;6.686;2023-07-28T04:57:41;100182.63;;;18.73;100.00
13068;BME280;6600;51.362;6.686;2023-07-28T05:00:07;100188.59;;;18.75;100.00
13068;BME280;6600;51.362;6.686;2023-07-28T05:02:33;100190.69;;;18.83;100.00
13068;BME280;6600;51.362;6.686;2023-07-28T05:04:59;100196.09;;;18.88;100.00
13068;BME280;6600;51.362;6.686;2023-07-28T05:07:24;100193.91;;;18.90;100.00
13068;BME280;6600;51.362;6.686;2023-07-28T05:09:49;100193.91;;;18.90;100.00
13068;BME280;6600;51.362;6.686;2023-07-28T05:12:15;100193.91;;;18.90;100.00
13068;BME280;6600;51.362;6.686;2023-07-28T05:14:40;100197.72;;;18.89;100.00
13068;BME280;6600;51.362;6.686;2023-07-28T05:17:05;100199.81;;;18.97;100.00
13068;BME280;6600;51.362;6.686;2023-07-28T05:19:31;100203.03;;;19.04;100.00
13068;BME280;6600;51.362;6.686;2023-07-28T05:21:57;100201.94;;;19.05;100.00
13068;BME280;6600;51.362;6.686;2023-07-28T05:24:22;100206.31;;;19.01;100.00
13068;BME280;6600;51.362;6.686;2023-07-28T05:26:48;100206.78;;;19.08;100.00
13068;BME280;6600;51.362;6.686;2023-07-28T05:29:13;100207.94;;;19.02;100.00
13068;BME280;6600;51.362;6.686;2023-07-28T05:31:38;100222.03;;;19.04;100.00
13068;BME280;6600;51.362;6.686;2023-07-28T05:34:04;100214.50;;;18.96;100.00
13068;BME280;6600;51.362;6.686;2023-07-28T05:36:29;100217.72;;;19.03;100.00
13068;BME280;6600;51.362;6.686;2023-07-28T05:38:54;100212.22;;;19.08;100.00
13068;BME280;6600;51.362;6.686;2023-07-28T05:41:22;100222.53;;;19.11;100.00
13068;BME280;6600;51.362;6.686;2023-07-28T05:43:49;100224.16;;;19.12;100.00
13068;BME280;6600;51.362;6.686;2023-07-28T05:46:14;100225.78;;;19.13;100.00
13068;BME280;6600;51.362;6.686;2023-07-28T05:48:39;100230.06;;;19.19;100.00
13068;BME280;6600;51.362;6.686;2023-07-28T05:51:05;100233.06;;;19.17;100.00
13068;BME280;6600;51.362;6.686;2023-07-28T05:53:30;100240.94;;;19.19;100.00
13068;BME280;6600;51.362;6.686;2023-07-28T05:55:56;100232.72;;;19.24;100.00
13068;BME280;6600;51.362;6.686;2023-07-28T05:58:21;100240.38;;;19.22;100.00
13068;BME280;6600;51.362;6.686;2023-07-28T06:00:46;100240.59;;;19.26;100.00
13068;BME280;6600;51.362;6.686;2023-07-28T06:03:13;100239.22;;;19.28;100.00
13068;BME280;6600;51.362;6.686;2023-07-28T06:05:39;100237.63;;;19.27;100.00
13068;BME280;6600;51.362;6.686;2023-07-28T06:08:05;100251.41;;;19.31;100.00
13068;BME280;6600;51.362;6.686;2023-07-28T06:10:31;100244.66;;;19.28;100.00
13068;BME280;6600;51.362;6.686;2023-07-28T06:12:56;100252.78;;;19.33;100.00
13068;BME280;6600;51.362;6.686;2023-07-28T06:15:21;100245.13;;;19.35;100.00
13068;BME280;6600;51.362;6.686;2023-07-28T06:17:47;100251.91;;;19.43;100.00
13068;BME280;6600;51.362;6.686;2023-07-28T06:20:12;100250.53;;;19.45;100.00
13068;BME280;6600;51.362;6.686;2023-07-28T06:22:37;100258.47;;;19.37;100.00
13068;BME280;6600;51.362;6.686;2023-07-28T06:25:03;100258.69;;;19.40;100.00
13068;BME280;6600;51.362;6.686;2023-07-28T06:27:28;100248.38;;;19.42;100.00
13068;BME280;6600;51.362;6.686;2023-07-28T06:29:54;100257.59;;;19.46;100.00
13068;BME280;6600;51.362;6.686;2023-07-28T06:32:19;100255.13;;;19.45;100.00
13068;BME280;6600;51.362;6.686;2023-07-28T06:34:48;100267.63;;;19.46;100.00
13068;BME280;6600;51.362;6.686;2023-07-28T06:37:13;100265.50;;;19.43;100.00
13068;BME280;6600;51.362;6.686;2023-07-28T06:39:39;100263.50;;;19.53;100.00
13068;BME280;6600;51.362;6.686;2023-07-28T06:42:04;100266.72;;;19.55;100.00
13068;BME280;6600;51.362;6.686;2023-07-28T06:44:31;100264.06;;;19.50;100.00
13068;BME280;6600;51.362;6.686;2023-07-28T06:46:56;100274.13;;;19.50;100.00
13068;BME280;6600;51.362;6.686;2023-07-28T06:49:21;100281.09;;;19.61;100.00
13068;BME280;6600;51.362;6.686;2023-07-28T06:51:47;100276.53;;;19.51;100.00
13068;BME280;6600;51.362;6.686;2023-07-28T06:54:12;100274.38;;;19.53;100.00
13068;BME280;6600;51.362;6.686;2023-07-28T06:56:38;100281.38;;;19.59;100.00
13068;BME280;6600;51.362;6.686;2023-07-28T06:59:04;100287.66;;;19.55;100.00
13068;BME280;6600;51.362;6.686;2023-07-28T07:01:30;100279.72;;;19.63;100.00
13068;BME280;6600;51.362;6.686;2023-07-28T07:03:56;100290.59;;;19.63;100.00
13068;BME280;6600;51.362;6.686;2023-07-28T07:06:21;100287.28;;;19.66;100.00
13068;BME280;6600;51.362;6.686;2023-07-28T07:08:46;100289.44;;;19.70;100.00
13068;BME280;6600;51.362;6.686;2023-07-28T07:11:12;100291.06;;;19.71;100.00
13068;BME280;6600;51.362;6.686;2023-07-28T07:13:37;100296.16;;;19.77;100.00
13068;BME280;6600;51.362;6.686;2023-07-28T07:16:03;100303.47;;;19.82;100.00
13068;BME280;6600;51.362;6.686;2023-07-28T07:18:28;100299.75;;;19.73;100.00
13068;BME280;6600;51.362;6.686;2023-07-28T07:20:53;100306.22;;;19.77;100.00
13068;BME280;6600;51.362;6.686;2023-07-28T07:23:19;100305.31;;;19.86;100.00
13068;BME280;6600;51.362;6.686;2023-07-28T07:25:44;100299.31;;;19.89;100.00
13068;BME280;6600;51.362;6.686;2023-07-28T07:28:09;100298.94;;;20.01;100.00
13068;BME280;6600;51.362;6.686;2023-07-28T07:30:35;100295.88;;;20.07;100.00
13068;BME280;6600;51.362;6.686;2023-07-28T07:33:00;100302.47;;;20.01;100.00
13068;BME280;6600;51.362;6.686;2023-07-28T07:35:26;100303.75;;;20.09;100.00
13068;BME280;6600;51.362;6.686;2023-07-28T07:37:51;100309.31;;;19.94;100.00
13068;BME280;6600;51.362;6.686;2023-07-28T07:40:16;100314.09;;;20.07;100.00
13068;BME280;6600;51.362;6.686;2023-07-28T07:42:43;100321.59;;;20.20;100.00
13068;BME280;6600;51.362;6.686;2023-07-28T07:45:10;100321.50;;;20.30;100.00
13068;BME280;6600;51.362;6.686;2023-07-28T07:47:35;100315.41;;;20.38;100.00
13068;BME280;6600;51.362;6.686;2023-07-28T07:50:01;100319.75;;;20.39;100.00
13068;BME280;6600;51.362;6.686;2023-07-28T07:52:26;100319.19;;;20.42;100.00
13068;BME280;6600;51.362;6.686;2023-07-28T07:54:51;100319.13;;;20.47;100.00
13068;BME280;6600;51.362;6.686;2023-07-28T07:57:17;100316.41;;;20.47;100.00
13068;BME280;6600;51.362;6.686;2023-07-28T07:59:42;100319.41;;;20.46;100.00
13068;BME280;6600;51.362;6.686;2023-07-28T08:02:08;100318.34;;;20.65;100.00
13068;BME280;6600;51.362;6.686;2023-07-28T08:04:33;100321.81;;;20.71;100.00
13068;BME280;6600;51.362;6.686;2023-07-28T08:06:58;100319.25;;;20.80;100.00
13068;BME280;6600;51.362;6.686;2023-07-28T08:09:24;100331.91;;;20.71;100.00
13068;BME280;6600;51.362;6.686;2023-07-28T08:11:49;100325.50;;;20.80;100.00
13068;BME280;6600;51.362;6.686;2023-07-28T08:14:15;100321.69;;;20.81;100.00
13068;BME280;6600;51.362;6.686;2023-07-28T08:16:40;100330.88;;;20.66;100.00
13068;BME280;6600;51.362;6.686;2023-07-28T08:19:06;100325.88;;;20.74;100.00
13068;BME280;6600;51.362;6.686;2023-07-28T08:21:31;100329.09;;;20.76;100.00
13068;BME280;6600;51.362;6.686;2023-07-28T08:24:02;100334.13;;;20.69;100.00
13068;BME280;6600;51.362;6.686;2023-07-28T08:26:29;100329.00;;;20.62;100.00
13068;BME280;6600;51.362;6.686;2023-07-28T08:28:54;100336.31;;;20.66;100.00
13068;BME280;6600;51.362;6.686;2023-07-28T08:31:19;100338.66;;;20.54;100.00
13068;BME280;6600;51.362;6.686;2023-07-28T08:33:45;100335.84;;;20.59;100.00
13068;BME280;6600;51.362;6.686;2023-07-28T08:36:10;100344.25;;;20.63;100.00
13068;BME280;6600;51.362;6.686;2023-07-28T08:38:35;100341.88;;;20.56;100.00
13068;BME280;6600;51.362;6.686;2023-07-28T08:41:00;100346.28;;;20.52;100.00
13068;BME280;6600;51.362;6.686;2023-07-28T08:43:26;100349.88;;;20.48;100.00
13068;BME280;6600;51.362;6.686;2023-07-28T08:45:53;100349.22;;;20.56;100.00
13068;BME280;6600;51.362;6.686;2023-07-28T08:48:19;100351.84;;;20.42;100.00
13068;BME280;6600;51.362;6.686;2023-07-28T08:50:45;100356.22;;;20.38;100.00
13068;BME280;6600;51.362;6.686;2023-07-28T08:53:10;100362.72;;;20.42;100.00
13068;BME280;6600;51.362;6.686;2023-07-28T08:55:35;100356.22;;;20.38;100.00
13068;BME280;6600;51.362;6.686;2023-07-28T08:58:18;100361.56;;;20.48;100.00
13068;BME280;6600;51.362;6.686;2023-07-28T09:00:47;100361.66;;;20.62;100.00
13068;BME280;6600;51.362;6.686;2023-07-28T09:03:18;100359.94;;;20.71;100.00
13068;BME280;6600;51.362;6.686;2023-07-28T09:05:44;100368.28;;;20.80;100.00
13068;BME280;6600;51.362;6.686;2023-07-28T09:08:15;100359.47;;;20.88;100.00
13068;BME280;6600;51.362;6.686;2023-07-28T09:10:45;100358.06;;;20.90;100.00
13068;BME280;6600;51.362;6.686;2023-07-28T09:13:12;100360.28;;;21.07;100.00
13068;BME280;6600;51.362;6.686;2023-07-28T09:15:39;100349.59;;;21.15;100.00
13068;BME280;6600;51.362;6.686;2023-07-28T09:18:09;100364.16;;;21.25;100.00
13068;BME280;6600;51.362;6.686;2023-07-28T09:20:36;100358.94;;;21.28;100.00
13068;BME280;6600;51.362;6.686;2023-07-28T09:23:02;100359.97;;;21.32;100.00
13068;BME280;6600;51.362;6.686;2023-07-28T09:25:29;100363.94;;;21.21;100.00
13068;BME280;6600;51.362;6.686;2023-07-28T09:27:55;100366.00;;;21.29;100.00
13068;BME280;6600;51.362;6.686;2023-07-28T09:30:21;100368.59;;;21.39;100.00
13068;BME280;6600;51.362;6.686;2023-07-28T09:32:51;100361.88;;;21.50;100.00
13068;BME280;6600;51.362;6.686;2023-07-28T09:35:17;100357.84;;;21.48;100.00
13068;BME280;6600;51.362;6.686;2023-07-28T09:37:44;100359.88;;;21.56;100.00
13068;BME280;6600;51.362;6.686;2023-07-28T09:40:12;100370.41;;;21.62;100.00
13068;BME280;6600;51.362;6.686;2023-07-28T09:42:38;100361.72;;;21.60;100.00
13068;BME280;6600;51.362;6.686;2023-07-28T09:45:05;100367.97;;;21.61;100.00
13068;BME280;6600;51.362;6.686;2023-07-28T09:47:33;100364.94;;;21.62;100.00
13068;BME280;6600;51.362;6.686;2023-07-28T09:50:02;100372.84;;;21.64;100.00
13068;BME280;6600;51.362;6.686;2023-07-28T09:52:33;100372.03;;;21.63;100.00
13068;BME280;6600;51.362;6.686;2023-07-28T09:54:59;100368.47;;;21.82;100.00
13068;BME280;6600;51.362;6.686;2023-07-28T09:57:29;100367.53;;;22.05;100.00
13068;BME280;6600;51.362;6.686;2023-07-28T09:59:59;100360.69;;;22.21;100.00
13068;BME280;6600;51.362;6.686;2023-07-28T10:02:26;100368.81;;;22.26;100.00
13068;BME280;6600;51.362;6.686;2023-07-28T10:04:52;100375.28;;;22.30;100.00
13068;BME280;6600;51.362;6.686;2023-07-28T10:07:19;100375.28;;;22.30;100.00
13068;BME280;6600;51.362;6.686;2023-07-28T10:09:44;100365.97;;;22.31;100.00
13068;BME280;6600;51.362;6.686;2023-07-28T10:12:18;100368.19;;;22.29;100.00
13068;BME280;6600;51.362;6.686;2023-07-28T10:14:44;100370.00;;;22.20;100.00
13068;BME280;6600;51.362;6.686;2023-07-28T10:17:16;100366.78;;;22.45;100.00
13068;BME280;6600;51.362;6.686;2023-07-28T10:19:42;100363.06;;;22.69;100.00
13068;BME280;6600;51.362;6.686;2023-07-28T10:22:09;100368.03;;;22.94;100.00
13068;BME280;6600;51.362;6.686;2023-07-28T10:27:37;100354.16;;;23.40;100.00
13068;BME280;6600;51.362;6.686;2023-07-28T10:30:07;100356.88;;;23.53;100.00
13068;BME280;6600;51.362;6.686;2023-07-28T10:32:40;100361.94;;;23.69;100.00
13068;BME280;6600;51.362;6.686;2023-07-28T10:37:36;100363.31;;;23.80;98.48
13068;BME280;6600;51.362;6.686;2023-07-28T10:40:24;100367.16;;;24.01;98.13
13068;BME280;6600;51.362;6.686;2023-07-28T10:42:51;100364.25;;;23.97;97.98
13068;BME280;6600;51.362;6.686;2023-07-28T10:45:17;100363.94;;;23.99;96.32
13068;BME280;6600;51.362;6.686;2023-07-28T10:47:44;100363.78;;;24.04;95.17
13068;BME280;6600;51.362;6.686;2023-07-28T10:50:10;100360.94;;;24.09;94.57
13068;BME280;6600;51.362;6.686;2023-07-28T10:52:43;100360.44;;;24.07;95.55
13068;BME280;6600;51.362;6.686;2023-07-28T10:55:16;100369.28;;;24.04;93.79
13068;BME280;6600;51.362;6.686;2023-07-28T10:57:42;100370.53;;;23.98;95.68
13068;BME280;6600;51.362;6.686;2023-07-28T11:00:09;100369.91;;;24.01;94.93
13068;BME280;6600;51.362;6.686;2023-07-28T11:02:38;100373.09;;;24.17;95.50
13068;BME280;6600;51.362;6.686;2023-07-28T11:05:18;100369.84;;;24.14;94.10
13068;BME280;6600;51.362;6.686;2023-07-28T11:07:44;100361.50;;;23.97;94.50
13068;BME280;6600;51.362;6.686;2023-07-28T11:10:16;100363.22;;;23.85;95.38
13068;BME280;6600;51.362;6.686;2023-07-28T11:12:47;100363.34;;;23.57;96.68
13068;BME280;6600;51.362;6.686;2023-07-28T11:15:14;100375.47;;;23.15;99.21
13068;BME280;6600;51.362;6.686;2023-07-28T11:17:42;100388.84;;;22.62;100.00
13068;BME280;6600;51.362;6.686;2023-07-28T11:22:43;100388.00;;;22.21;100.00
13068;BME280;6600;51.362;6.686;2023-07-28T11:25:09;100382.72;;;22.11;100.00
13068;BME280;6600;51.362;6.686;2023-07-28T11:27:35;100374.25;;;22.26;100.00
13068;BME280;6600;51.362;6.686;2023-07-28T11:30:01;100368.00;;;22.39;100.00
13068;BME280;6600;51.362;6.686;2023-07-28T11:32:29;100367.00;;;22.62;100.00
13068;BME280;6600;51.362;6.686;2023-07-28T11:34:55;100372.06;;;22.69;100.00
13068;BME280;6600;51.362;6.686;2023-07-28T11:37:21;100368.94;;;22.76;100.00
13068;BME280;6600;51.362;6.686;2023-07-28T11:39:46;100359.75;;;22.85;100.00
13068;BME280;6600;51.362;6.686;2023-07-28T11:42:13;100358.97;;;23.07;100.00
13068;BME280;6600;51.362;6.686;2023-07-28T11:44:38;100363.97;;;23.05;100.00
13068;BME280;6600;51.362;6.686;2023-07-28T11:47:05;100362.72;;;23.11;100.00
13068;BME280;6600;51.362;6.686;2023-07-28T11:49:30;100369.69;;;23.17;100.00
13068;BME280;6600;51.362;6.686;2023-07-28T11:51:56;100360.66;;;23.30;100.00
13068;BME280;6600;51.362;6.686;2023-07-28T11:54:25;100356.34;;;23.51;100.00
13068;BME280;6600;51.362;6.686;2023-07-28T11:56:53;100357.00;;;23.71;100.00
13068;BME280;6600;51.362;6.686;2023-07-28T11:59:20;100358.28;;;23.95;100.00
13068;BME280;6600;51.362;6.686;2023-07-28T12:01:56;100349.38;;;24.12;100.00
13068;BME280;6600;51.362;6.686;2023-07-28T12:04:36;100353.84;;;24.08;100.00
13068;BME280;6600;51.362;6.686;2023-07-28T12:12:14;100356.09;;;24.06;97.31
13068;BME280;6600;51.362;6.686;2023-07-28T12:14:40;100362.63;;;23.96;99.21
13068;BME280;6600;51.362;6.686;2023-07-28T12:17:15;100361.84;;;23.96;97.71
13068;BME280;6600;51.362;6.686;2023-07-28T12:22:36;100360.72;;;24.19;97.45
13068;BME280;6600;51.362;6.686;2023-07-28T12:25:02;100369.03;;;24.14;96.46
13068;BME280;6600;51.362;6.686;2023-07-28T12:27:27;100356.91;;;24.06;97.40
13068;BME280;6600;51.362;6.686;2023-07-28T12:29:52;100343.72;;;24.39;96.93
13068;BME280;6600;51.362;6.686;2023-07-28T12:32:18;100347.00;;;24.58;94.42
13068;BME280;6600;51.362;6.686;2023-07-28T12:34:44;100343.16;;;24.59;96.37
13068;BME280;6600;51.362;6.686;2023-07-28T12:37:09;100344.59;;;24.57;93.41
13068;BME280;6600;51.362;6.686;2023-07-28T12:39:37;100349.94;;;24.71;94.03
13068;BME280;6600;51.362;6.686;2023-07-28T12:42:05;100356.53;;;25.09;92.43
13068;BME280;6600;51.362;6.686;2023-07-28T12:44:31;100355.25;;;25.32;95.66
13068;BME280;6600;51.362;6.686;2023-07-28T12:46:56;100357.34;;;25.44;92.31
13068;BME280;6600;51.362;6.686;2023-07-28T12:49:21;100351.84;;;25.35;91.33
13068;BME280;6600;51.362;6.686;2023-07-28T12:51:47;100349.59;;;25.37;91.01
13068;BME280;6600;51.362;6.686;2023-07-28T12:54:12;100358.94;;;25.10;89.63
13068;BME280;6600;51.362;6.686;2023-07-28T12:56:37;100354.88;;;24.91;90.17
13068;BME280;6600;51.362;6.686;2023-07-28T12:59:03;100352.91;;;24.83;89.74
13068;BME280;6600;51.362;6.686;2023-07-28T13:01:28;100352.59;;;24.93;91.36
13068;BME280;6600;51.362;6.686;2023-07-28T13:03:53;100359.00;;;24.80;92.72